Time;durP1;ratioP1;P1;durP2;ratioP2;P2;SDS_P1;SDS_P2;PMS_P1;PMS_P2;Temp;Humidity;BMP_temperature;BMP_pressure;BME280_temperature;BME280_humidity;BME280_pressure;Samples;Min_cycle;Max_cycle;Signal;HPM_P1;HPM_P2
2021/12/18 00:00:12;;;;;;;;;;;22.30;45.50;;;;;;5062918;28;19998;-80
2021/12/18 00:02:37;;;;;;;;;;;22.30;45.50;;;;;;5062814;28;19919;-81
2021/12/18 00:05:03;;;;;;;;;;;22.30;45.50;;;;;;5079195;28;19909;-81
2021/12/18 00:07:28;;;;;;;;;;;22.30;45.50;;;;;;5062656;28;20318;-82
2021/12/18 00:09:54;;;;;;;;;;;22.20;45.40;;;;;;5079241;28;20252;-80
2021/12/18 00:12:22;;;;;;;;;;;22.20;45.50;;;;;;5079252;28;20352;-83
2021/12/18 00:14:49;;;;;;;;;;;22.20;45.50;;;;;;5079728;28;19908;-81
2021/12/18 00:17:20;;;;;;;;;;;22.20;45.50;;;;;;5079141;28;19962;-80
2021/12/18 00:19:45;;;;;;;;;;;22.20;45.50;;;;;;5079006;28;19908;-80
2021/12/18 00:22:16;;;;;;;;;;;22.20;45.50;;;;;;5062054;28;20342;-81
2021/12/18 00:24:44;;;;;;;;;;;22.20;45.40;;;;;;5079068;28;19936;-80
2021/12/18 00:27:12;;;;;;;;;;;22.20;45.40;;;;;;5078678;28;20337;-82
2021/12/18 00:29:37;;;;;;;;;;;22.20;45.40;;;;;;5062631;28;19916;-80
2021/12/18 00:32:03;;;;;;;;;;;22.20;45.40;;;;;;5062344;28;19908;-82
2021/12/18 00:34:28;;;;;;;;;;;22.20;45.40;;;;;;5062160;28;20226;-81
2021/12/18 00:36:56;;;;;;;;;;;22.20;45.30;;;;;;5078455;28;19986;-81
2021/12/18 00:39:22;;;;;;;;;;;22.20;45.30;;;;;;5079003;28;19912;-79
2021/12/18 00:42:00;;;;;;;;;;;22.20;45.30;;;;;;5078859;28;20046;-82
2021/12/18 00:44:26;;;;;;;;;;;22.20;45.30;;;;;;5064431;28;19927;-84
2021/12/18 00:46:51;;;;;;;;;;;22.20;45.30;;;;;;5078781;28;19912;-80
2021/12/18 00:49:17;;;;;;;;;;;22.20;45.30;;;;;;5078397;28;19909;-82
2021/12/18 00:51:45;;;;;;;;;;;22.20;45.20;;;;;;5078069;28;19908;-82
2021/12/18 00:54:13;;;;;;;;;;;22.20;45.20;;;;;;5078846;28;19908;-83
2021/12/18 00:56:38;;;;;;;;;;;22.20;45.10;;;;;;5061924;28;19938;-81
2021/12/18 00:59:06;;;;;;;;;;;22.20;45.10;;;;;;5077988;28;19912;-83
2021/12/18 01:01:32;;;;;;;;;;;22.20;45.10;;;;;;5061657;28;20002;-81
2021/12/18 01:03:58;;;;;;;;;;;22.20;45.10;;;;;;5078066;28;19958;-82
2021/12/18 01:06:23;;;;;;;;;;;22.20;45.10;;;;;;5061248;28;19999;-82
2021/12/18 01:08:54;;;;;;;;;;;22.20;45.70;;;;;;5061107;28;20245;-82
2021/12/18 01:16:39;;;;;;;;;;;22.20;45.10;;;;;;5079845;28;19966;-82
2021/12/18 01:24:35;;;;;;;;;;;22.20;45.10;;;;;;5080561;28;19964;-83
2021/12/18 01:27:01;;;;;;;;;;;22.20;45.10;;;;;;5077852;28;19912;-81
2021/12/18 01:29:29;;;;;;;;;;;22.20;45.10;;;;;;5060931;28;19908;-82
2021/12/18 01:31:57;;;;;;;;;;;22.20;45.10;;;;;;5060775;28;19908;-82
2021/12/18 01:34:24;;;;;;;;;;;22.20;45.10;;;;;;5077912;28;19912;-82
2021/12/18 01:36:50;;;;;;;;;;;22.20;45.00;;;;;;5077495;28;19965;-82
2021/12/18 01:39:18;;;;;;;;;;;22.20;45.00;;;;;;5077588;28;19974;-81
2021/12/18 01:42:05;;;;;;;;;;;22.20;45.00;;;;;;5060818;28;19908;-82
2021/12/18 01:52:25;;;;;;;;;;;22.20;45.00;;;;;;5095214;28;20236;-81
2021/12/18 01:54:50;;;;;;;;;;;22.20;45.00;;;;;;5079771;28;20310;-81
2021/12/18 01:57:18;;;;;;;;;;;22.20;44.90;;;;;;5077530;28;20389;-81
2021/12/18 01:59:48;;;;;;;;;;;22.20;44.90;;;;;;5061156;28;19912;-81
2021/12/18 02:02:14;;;;;;;;;;;22.20;44.80;;;;;;5061056;28;19919;-82
2021/12/18 02:04:40;;;;;;;;;;;22.20;44.80;;;;;;5063128;28;20389;-82
2021/12/18 02:07:07;;;;;;;;;;;22.20;44.90;;;;;;5081052;28;19912;-81
2021/12/18 02:09:59;;;;;;;;;;;22.10;44.80;;;;;;5064838;28;19952;-81
2021/12/18 02:12:30;;;;;;;;;;;22.10;44.80;;;;;;5083912;28;19912;-81
2021/12/18 02:20:38;;;;;;;;;;;22.20;44.80;;;;;;5083826;28;19990;-80
2021/12/18 02:23:06;;;;;;;;;;;22.10;44.70;;;;;;5085611;28;19908;-81
2021/12/18 02:25:36;;;;;;;;;;;22.20;44.80;;;;;;5064506;28;20337;-82
2021/12/18 02:28:02;;;;;;;;;;;22.10;44.80;;;;;;5081322;28;20258;-80
2021/12/18 02:30:27;;;;;;;;;;;22.10;44.80;;;;;;5064135;28;19971;-80
2021/12/18 02:32:55;;;;;;;;;;;22.10;44.80;;;;;;5064253;28;19919;-79
2021/12/18 02:35:26;;;;;;;;;;;22.10;44.70;;;;;;5064361;28;19908;-82
2021/12/18 02:37:54;;;;;;;;;;;22.10;44.70;;;;;;5098362;28;19977;-80
2021/12/18 02:43:14;;;;;;;;;;;22.10;44.70;;;;;;5083320;28;19970;-82
2021/12/18 02:45:42;;;;;;;;;;;22.10;44.70;;;;;;5064480;28;19954;-82
2021/12/18 02:48:07;;;;;;;;;;;22.10;44.80;;;;;;5063876;28;19923;-82
2021/12/18 02:50:33;;;;;;;;;;;22.10;44.70;;;;;;5080671;28;19912;-81
2021/12/18 02:52:58;;;;;;;;;;;22.10;44.70;;;;;;5063748;28;19908;-81
2021/12/18 02:55:28;;;;;;;;;;;22.10;44.70;;;;;;5063609;28;19919;-81
2021/12/18 02:57:54;;;;;;;;;;;22.10;44.70;;;;;;5064010;28;19955;-81
2021/12/18 03:00:24;;;;;;;;;;;22.10;44.70;;;;;;5080445;28;19919;-82
2021/12/18 03:02:52;;;;;;;;;;;22.10;44.70;;;;;;5064016;28;20268;-80
2021/12/18 03:05:25;;;;;;;;;;;22.10;44.70;;;;;;5080638;28;20229;-81
2021/12/18 03:07:57;;;;;;;;;;;22.10;44.70;;;;;;5081316;28;20431;-81
2021/12/18 03:26:57;;;;;;;;;;;22.00;44.70;;;;;;5094370;28;19965;-82
2021/12/18 03:29:24;;;;;;;;;;;22.00;44.70;;;;;;5079768;28;20404;-80
2021/12/18 03:31:53;;;;;;;;;;;22.10;44.70;;;;;;5080473;28;19958;-82
2021/12/18 03:34:19;;;;;;;;;;;22.00;44.70;;;;;;5063896;28;20005;-81
2021/12/18 03:36:44;;;;;;;;;;;22.00;44.70;;;;;;5079750;28;19916;-82
2021/12/18 03:39:10;;;;;;;;;;;22.00;44.70;;;;;;5079839;28;19912;-82
2021/12/18 03:41:37;;;;;;;;;;;22.00;44.70;;;;;;5096978;28;19922;-81
2021/12/18 03:44:03;;;;;;;;;;;22.00;44.60;;;;;;5066881;28;19920;-82
2021/12/18 03:46:31;;;;;;;;;;;22.10;44.70;;;;;;5063377;28;19919;-82
2021/12/18 03:48:57;;;;;;;;;;;22.10;44.70;;;;;;5097080;28;19960;-82
2021/12/18 03:51:27;;;;;;;;;;;22.10;44.50;;;;;;5079394;28;19908;-82
2021/12/18 03:53:53;;;;;;;;;;;22.00;44.50;;;;;;5064016;28;19908;-83
2021/12/18 03:56:23;;;;;;;;;;;22.00;44.50;;;;;;5079282;28;20296;-82
2021/12/18 03:58:51;;;;;;;;;;;22.00;44.50;;;;;;5079676;28;20336;-81
2021/12/18 04:01:17;;;;;;;;;;;22.10;44.50;;;;;;5062609;28;20344;-81
2021/12/18 04:03:42;;;;;;;;;;;22.10;44.50;;;;;;5079110;28;19923;-82
2021/12/18 04:06:08;;;;;;;;;;;22.10;44.40;;;;;;5079160;28;19949;-81
2021/12/18 04:08:35;;;;;;;;;;;22.00;44.40;;;;;;5078731;28;19912;-82
2021/12/18 04:11:01;;;;;;;;;;;22.00;44.50;;;;;;5096314;28;19919;-83
2021/12/18 04:13:27;;;;;;;;;;;22.00;44.40;;;;;;5097219;28;19909;-82
2021/12/18 04:15:53;;;;;;;;;;;22.00;44.30;;;;;;5096234;28;19908;-82
2021/12/18 04:18:18;;;;;;;;;;;22.00;44.30;;;;;;5079059;28;20007;-82
2021/12/18 04:20:43;;;;;;;;;;;22.00;45.00;;;;;;5078836;28;20324;-80
2021/12/18 04:23:14;;;;;;;;;;;22.00;44.30;;;;;;5078852;28;19908;-82
2021/12/18 04:25:40;;;;;;;;;;;22.00;44.40;;;;;;5078817;28;19908;-82
2021/12/18 04:28:06;;;;;;;;;;;22.00;44.40;;;;;;5061620;28;19912;-82
2021/12/18 04:30:31;;;;;;;;;;;22.00;44.40;;;;;;5078838;28;20402;-82
2021/12/18 04:32:59;;;;;;;;;;;22.00;44.40;;;;;;5078645;28;20412;-83
2021/12/18 04:35:30;;;;;;;;;;;22.00;44.40;;;;;;5096289;28;19908;-82
2021/12/18 04:37:55;;;;;;;;;;;22.00;44.40;;;;;;5062058;28;20408;-83
2021/12/18 04:40:26;;;;;;;;;;;21.90;44.40;;;;;;5062197;28;20012;-82
2021/12/18 04:42:52;;;;;;;;;;;22.00;44.40;;;;;;5062257;28;20360;-81
2021/12/18 04:45:20;;;;;;;;;;;22.00;44.40;;;;;;5078313;28;20021;-82
2021/12/18 04:47:48;;;;;;;;;;;22.00;44.30;;;;;;5062139;28;19912;-82
2021/12/18 04:50:14;;;;;;;;;;;22.00;44.30;;;;;;5061700;28;19908;-83
2021/12/18 04:52:41;;;;;;;;;;;22.00;44.40;;;;;;5078619;28;20356;-82
2021/12/18 04:55:07;;;;;;;;;;;22.00;44.30;;;;;;5062211;28;20254;-83
2021/12/18 04:57:32;;;;;;;;;;;22.00;44.30;;;;;;5061573;28;19938;-82
2021/12/18 04:59:58;;;;;;;;;;;22.00;44.20;;;;;;5078300;28;19944;-83
2021/12/18 05:02:33;;;;;;;;;;;22.00;44.30;;;;;;5078784;28;19908;-84
2021/12/18 05:04:59;;;;;;;;;;;22.00;44.30;;;;;;5079711;28;19908;-81
2021/12/18 05:07:26;;;;;;;;;;;22.00;44.30;;;;;;5061649;28;19919;-84
2021/12/18 05:09:51;;;;;;;;;;;22.00;44.30;;;;;;5078311;28;20341;-82
2021/12/18 05:12:22;;;;;;;;;;;22.00;44.20;;;;;;5077961;28;19938;-83
2021/12/18 05:14:47;;;;;;;;;;;22.00;44.20;;;;;;5061818;28;19908;-81
2021/12/18 05:17:15;;;;;;;;;;;21.90;44.20;;;;;;5061380;28;19908;-81
2021/12/18 05:19:41;;;;;;;;;;;21.90;44.20;;;;;;5061342;28;19908;-80
2021/12/18 05:22:06;;;;;;;;;;;21.90;44.20;;;;;;5078122;28;19920;-82
2021/12/18 05:24:34;;;;;;;;;;;22.00;44.30;;;;;;5061200;28;19913;-82
2021/12/18 05:27:02;;;;;;;;;;;22.00;44.40;;;;;;5061406;28;19918;-80
2021/12/18 05:29:30;;;;;;;;;;;21.90;44.30;;;;;;5078078;28;19919;-81
2021/12/18 05:31:56;;;;;;;;;;;21.90;44.30;;;;;;5095584;28;19951;-81
2021/12/18 05:34:26;;;;;;;;;;;21.90;44.20;;;;;;5061000;28;20356;-81
2021/12/18 05:39:25;;;;;;;;;;;22.00;44.20;;;;;;5080167;28;19908;-81
2021/12/18 05:41:53;;;;;;;;;;;22.00;44.20;;;;;;5082146;28;19908;-81
2021/12/18 05:44:22;;;;;;;;;;;21.90;44.20;;;;;;5082038;28;20242;-83
2021/12/18 05:46:50;;;;;;;;;;;21.90;44.10;;;;;;5081902;28;19966;-82
2021/12/18 05:49:18;;;;;;;;;;;21.90;44.20;;;;;;5064708;28;19912;-81
2021/12/18 05:51:45;;;;;;;;;;;21.90;44.20;;;;;;5081662;28;19908;-81
2021/12/18 05:54:11;;;;;;;;;;;21.90;44.20;;;;;;5081938;28;19958;-81
2021/12/18 05:56:37;;;;;;;;;;;21.90;44.20;;;;;;5064953;28;19916;-81
2021/12/18 05:59:02;;;;;;;;;;;21.90;44.20;;;;;;5064870;28;20289;-83
2021/12/18 06:01:28;;;;;;;;;;;21.90;44.20;;;;;;5081517;28;19935;-84
2021/12/18 06:03:54;;;;;;;;;;;21.90;44.30;;;;;;5064754;28;19908;-80
2021/12/18 06:06:21;;;;;;;;;;;21.90;44.20;;;;;;5064603;28;19908;-82
2021/12/18 06:08:49;;;;;;;;;;;21.90;44.20;;;;;;5065035;28;20316;-81
2021/12/18 06:11:16;;;;;;;;;;;21.90;44.20;;;;;;5065139;28;19951;-83
2021/12/18 06:13:48;;;;;;;;;;;21.90;44.30;;;;;;5064802;28;19935;-79
2021/12/18 06:16:18;;;;;;;;;;;21.90;44.20;;;;;;5064424;28;20351;-82
2021/12/18 06:18:44;;;;;;;;;;;21.90;44.20;;;;;;5081827;28;20003;-81
2021/12/18 06:21:15;;;;;;;;;;;21.90;44.30;;;;;;5081175;28;19958;-81
2021/12/18 06:23:44;;;;;;;;;;;21.90;44.20;;;;;;5081699;28;19973;-81
2021/12/18 06:26:13;;;;;;;;;;;21.80;44.20;;;;;;5081292;28;19908;-81
2021/12/18 06:28:38;;;;;;;;;;;21.80;44.30;;;;;;5065025;28;19930;-83
2021/12/18 06:31:04;;;;;;;;;;;21.90;44.30;;;;;;5081146;28;19908;-82
2021/12/18 06:33:29;;;;;;;;;;;21.90;44.40;;;;;;5064570;28;20271;-82
2021/12/18 06:35:55;;;;;;;;;;;21.90;44.40;;;;;;5064184;28;19912;-81
2021/12/18 06:38:21;;;;;;;;;;;21.80;44.30;;;;;;5080856;28;19909;-81
2021/12/18 06:40:46;;;;;;;;;;;21.80;44.30;;;;;;5064189;28;19909;-83
2021/12/18 06:43:12;;;;;;;;;;;21.80;44.40;;;;;;5063805;28;19912;-83
2021/12/18 06:45:37;;;;;;;;;;;21.80;44.50;;;;;;5064115;28;20344;-82
2021/12/18 06:48:03;;;;;;;;;;;21.90;44.80;;;;;;5080811;28;19938;-79
2021/12/18 06:50:31;;;;;;;;;;;21.90;44.60;;;;;;5080208;28;19908;-83
2021/12/18 06:52:57;;;;;;;;;;;21.80;44.40;;;;;;5063986;28;20000;-79
2021/12/18 06:55:22;;;;;;;;;;;21.90;44.30;;;;;;5080605;28;19947;-82
2021/12/18 06:57:50;;;;;;;;;;;21.90;44.20;;;;;;5080690;28;19908;-79
2021/12/18 07:00:16;;;;;;;;;;;21.90;44.10;;;;;;5064096;28;19940;-81
2021/12/18 07:02:42;;;;;;;;;;;21.80;43.90;;;;;;5064125;28;19961;-82
2021/12/18 07:05:08;;;;;;;;;;;21.80;43.90;;;;;;5064299;28;19908;-85
2021/12/18 07:07:35;;;;;;;;;;;21.80;44.00;;;;;;5099836;28;20009;-80
2021/12/18 07:10:04;;;;;;;;;;;21.80;44.00;;;;;;5084006;28;19908;-81
2021/12/18 07:12:32;;;;;;;;;;;21.70;44.10;;;;;;5065103;28;19908;-81
2021/12/18 07:15:00;;;;;;;;;;;21.70;44.00;;;;;;5080828;28;20297;-82
2021/12/18 07:17:26;;;;;;;;;;;21.70;44.10;;;;;;5080687;28;19919;-81
2021/12/18 07:19:52;;;;;;;;;;;21.70;44.30;;;;;;5063399;28;20256;-82
2021/12/18 07:22:17;;;;;;;;;;;21.60;44.30;;;;;;5063534;28;19908;-83
2021/12/18 07:24:43;;;;;;;;;;;21.60;44.30;;;;;;5080206;28;19914;-81
2021/12/18 07:27:08;;;;;;;;;;;21.60;44.40;;;;;;5063244;28;20303;-82
2021/12/18 07:29:34;;;;;;;;;;;21.60;44.40;;;;;;5063281;28;19916;-82
2021/12/18 07:31:59;;;;;;;;;;;21.70;44.50;;;;;;5063475;28;20255;-83
2021/12/18 07:34:25;;;;;;;;;;;21.60;44.50;;;;;;5063894;28;19908;-80
2021/12/18 07:36:53;;;;;;;;;;;21.60;44.50;;;;;;5063842;28;19919;-81
2021/12/18 07:39:18;;;;;;;;;;;21.60;44.60;;;;;;5081108;28;20292;-81
2021/12/18 07:41:44;;;;;;;;;;;21.60;44.70;;;;;;5079687;28;19951;-80
2021/12/18 07:44:09;;;;;;;;;;;21.60;44.80;;;;;;5062789;28;20398;-83
2021/12/18 07:46:35;;;;;;;;;;;21.60;44.80;;;;;;5062965;28;19908;-84
2021/12/18 07:49:03;;;;;;;;;;;21.60;44.80;;;;;;5079846;28;19952;-81
2021/12/18 07:51:31;;;;;;;;;;;21.60;44.80;;;;;;5063169;28;19939;-80
2021/12/18 07:53:57;;;;;;;;;;;21.60;44.80;;;;;;5080085;28;19916;-82
2021/12/18 07:56:22;;;;;;;;;;;21.60;44.80;;;;;;5079675;28;19974;-81
2021/12/18 07:58:47;;;;;;;;;;;21.60;44.80;;;;;;5079727;28;20291;-80
2021/12/18 08:01:13;;;;;;;;;;;21.60;44.70;;;;;;5061632;28;20332;-81
2021/12/18 08:03:41;;;;;;;;;;;21.60;44.70;;;;;;5062697;28;19918;-81
2021/12/18 08:06:06;;;;;;;;;;;21.60;44.70;;;;;;5079759;28;20259;-81
2021/12/18 08:08:32;;;;;;;;;;;21.60;44.80;;;;;;5062750;28;20019;-82
2021/12/18 08:11:00;;;;;;;;;;;21.60;44.80;;;;;;5079428;28;19999;-81
2021/12/18 08:13:28;;;;;;;;;;;21.60;44.80;;;;;;5079331;28;19938;-83
2021/12/18 08:15:56;;;;;;;;;;;21.60;44.80;;;;;;5062656;28;19920;-82
2021/12/18 08:18:21;;;;;;;;;;;21.60;44.80;;;;;;5079340;28;20315;-82
2021/12/18 08:20:47;;;;;;;;;;;21.60;44.80;;;;;;5079313;28;19909;-82
2021/12/18 08:23:12;;;;;;;;;;;21.60;44.80;;;;;;5062070;28;20341;-82
2021/12/18 08:25:40;;;;;;;;;;;21.60;44.60;;;;;;5062240;28;19916;-82
2021/12/18 08:28:06;;;;;;;;;;;21.60;44.80;;;;;;5062230;28;19923;-81
2021/12/18 08:30:32;;;;;;;;;;;21.60;44.80;;;;;;5062675;28;19916;-82
2021/12/18 08:32:58;;;;;;;;;;;21.60;44.80;;;;;;5078989;28;19919;-82
2021/12/18 08:35:26;;;;;;;;;;;21.60;44.70;;;;;;5078894;28;19924;-83
2021/12/18 08:37:54;;;;;;;;;;;21.60;44.60;;;;;;5062194;28;20010;-79
2021/12/18 08:40:20;;;;;;;;;;;21.50;44.50;;;;;;5062139;28;19919;-80
2021/12/18 08:42:45;;;;;;;;;;;21.60;44.40;;;;;;5078741;28;19908;-80
2021/12/18 08:45:12;;;;;;;;;;;21.60;44.60;;;;;;5061869;28;20043;-80
2021/12/18 08:47:38;;;;;;;;;;;21.60;44.80;;;;;;5078502;28;19916;-83
2021/12/18 08:50:06;;;;;;;;;;;21.60;44.80;;;;;;5061507;28;20348;-81
2021/12/18 08:52:32;;;;;;;;;;;21.60;44.80;;;;;;5078798;28;19916;-82
2021/12/18 08:54:58;;;;;;;;;;;21.60;44.80;;;;;;5061614;28;19908;-82
2021/12/18 08:57:26;;;;;;;;;;;21.60;44.60;;;;;;5061819;28;19943;-83
2021/12/18 08:59:51;;;;;;;;;;;21.60;44.80;;;;;;5078866;28;20003;-81
2021/12/18 09:02:17;;;;;;;;;;;21.60;44.70;;;;;;5061586;28;19950;-82
2021/12/18 09:04:43;;;;;;;;;;;21.60;44.80;;;;;;5096076;28;19970;-81
2021/12/18 09:07:08;;;;;;;;;;;21.70;44.70;;;;;;5078603;28;19950;-81
2021/12/18 09:09:36;;;;;;;;;;;21.70;44.80;;;;;;5078302;28;20329;-82
2021/12/18 09:12:02;;;;;;;;;;;21.70;44.40;;;;;;5062127;28;19947;-82
2021/12/18 09:14:30;;;;;;;;;;;21.80;44.60;;;;;;5078187;28;19919;-79
2021/12/18 09:16:58;;;;;;;;;;;21.90;44.70;;;;;;5078888;28;19968;-81
2021/12/18 09:19:24;;;;;;;;;;;21.90;44.60;;;;;;5061664;28;19908;-81
2021/12/18 09:21:49;;;;;;;;;;;21.90;44.50;;;;;;5061500;28;20325;-82
2021/12/18 09:24:15;;;;;;;;;;;21.90;44.30;;;;;;5063496;28;19966;-83
2021/12/18 09:26:40;;;;;;;;;;;21.90;44.20;;;;;;5064687;28;19908;-82
2021/12/18 09:29:06;;;;;;;;;;;21.40;35.60;;;;;;5098437;28;20325;-82
2021/12/18 09:31:32;;;;;;;;;;;20.30;33.40;;;;;;5064261;28;19938;-82
2021/12/18 09:33:59;;;;;;;;;;;19.30;32.40;;;;;;5062221;28;19908;-79
2021/12/18 09:36:27;;;;;;;;;;;18.50;33.50;;;;;;5081972;28;19908;-80
2021/12/18 09:38:55;;;;;;;;;;;18.00;34.10;;;;;;5082222;28;19934;-82
2021/12/18 09:41:21;;;;;;;;;;;17.70;34.20;;;;;;5066715;28;19908;-81
2021/12/18 09:43:47;;;;;;;;;;;17.30;36.20;;;;;;5080256;28;19927;-81
2021/12/18 09:46:13;;;;;;;;;;;18.30;38.20;;;;;;5081046;28;19915;-80
2021/12/18 09:48:40;;;;;;;;;;;19.10;37.40;;;;;;5064968;28;19966;-81
2021/12/18 09:51:11;;;;;;;;;;;19.70;36.40;;;;;;5065666;28;19908;-83
2021/12/18 09:53:37;;;;;;;;;;;20.10;36.20;;;;;;5061888;28;19926;-79
2021/12/18 09:56:06;;;;;;;;;;;20.50;36.00;;;;;;5060576;28;20257;-80
2021/12/18 09:58:33;;;;;;;;;;;20.70;36.00;;;;;;5077705;28;20345;-81
2021/12/18 10:01:02;;;;;;;;;;;20.80;36.00;;;;;;5060697;28;19908;-81
2021/12/18 10:03:46;;;;;;;;;;;21.00;36.10;;;;;;5060930;28;19909;-80
2021/12/18 10:06:36;;;;;;;;;;;21.10;36.20;;;;;;5095010;28;19908;-79
2021/12/18 10:09:06;;;;;;;;;;;21.20;36.50;;;;;;5078106;28;19923;-80
2021/12/18 10:11:31;;;;;;;;;;;21.30;36.80;;;;;;5060720;28;19908;-81
2021/12/18 10:14:02;;;;;;;;;;;21.40;36.90;;;;;;5060810;28;20400;-81
2021/12/18 10:16:27;;;;;;;;;;;21.50;36.90;;;;;;5078205;28;19908;-84
2021/12/18 10:18:56;;;;;;;;;;;21.50;37.10;;;;;;5078011;28;19977;-81
2021/12/18 10:21:22;;;;;;;;;;;21.60;37.30;;;;;;5078138;28;19908;-79
2021/12/18 10:23:50;;;;;;;;;;;21.60;37.40;;;;;;5061010;28;19999;-80
2021/12/18 10:26:34;;;;;;;;;;;21.60;37.50;;;;;;5064262;28;19915;-81
2021/12/18 10:29:00;;;;;;;;;;;21.70;37.70;;;;;;5064398;28;19916;-83
2021/12/18 10:31:44;;;;;;;;;;;21.70;37.80;;;;;;5081215;28;19923;-81
2021/12/18 10:34:17;;;;;;;;;;;21.70;37.90;;;;;;5064116;28;19954;-81
2021/12/18 10:36:55;;;;;;;;;;;21.80;38.10;;;;;;5064330;28;19935;-82
2021/12/18 10:39:20;;;;;;;;;;;21.80;38.20;;;;;;5081268;28;19909;-82
2021/12/18 10:41:46;;;;;;;;;;;21.80;38.30;;;;;;5064424;28;20237;-82
2021/12/18 10:44:14;;;;;;;;;;;21.90;38.50;;;;;;5080649;28;20480;-83
2021/12/18 10:46:40;;;;;;;;;;;21.90;38.50;;;;;;5064190;28;19908;-81
2021/12/18 10:49:06;;;;;;;;;;;22.00;38.70;;;;;;5081053;28;20003;-80
2021/12/18 10:51:32;;;;;;;;;;;21.90;38.70;;;;;;5080985;28;20337;-79
2021/12/18 10:54:02;;;;;;;;;;;22.00;38.80;;;;;;5064102;28;19951;-80
2021/12/18 10:56:32;;;;;;;;;;;22.00;38.80;;;;;;5064386;28;20002;-81
2021/12/18 10:59:00;;;;;;;;;;;22.00;38.90;;;;;;5080976;28;19908;-82
2021/12/18 11:01:25;;;;;;;;;;;22.10;39.00;;;;;;5064491;28;19947;-83
2021/12/18 11:03:51;;;;;;;;;;;22.10;39.00;;;;;;5065222;28;19908;-81
2021/12/18 11:06:18;;;;;;;;;;;22.10;39.10;;;;;;5083789;28;20378;-82
2021/12/18 11:08:52;;;;;;;;;;;22.10;39.10;;;;;;5083523;28;19912;-81
2021/12/18 11:14:09;;;;;;;;;;;22.20;39.30;;;;;;5084573;28;20225;-80
2021/12/18 11:16:37;;;;;;;;;;;22.20;39.40;;;;;;5081728;28;19916;-82
2021/12/18 11:19:04;;;;;;;;;;;22.20;39.40;;;;;;5064913;28;19916;-81
2021/12/18 11:21:32;;;;;;;;;;;22.20;39.50;;;;;;5080579;28;19936;-83
2021/12/18 11:24:01;;;;;;;;;;;22.20;39.50;;;;;;5081057;28;20236;-81
2021/12/18 11:26:31;;;;;;;;;;;22.30;39.50;;;;;;5063696;28;19908;-81
2021/12/18 11:28:57;;;;;;;;;;;22.30;39.60;;;;;;5063850;28;19912;-81
2021/12/18 11:31:24;;;;;;;;;;;22.30;39.60;;;;;;5063522;28;19923;-83
2021/12/18 11:33:50;;;;;;;;;;;22.30;39.70;;;;;;5063427;28;19908;-82
2021/12/18 11:36:15;;;;;;;;;;;22.40;39.70;;;;;;5063078;28;19919;-82
2021/12/18 11:38:43;;;;;;;;;;;22.40;39.70;;;;;;5063725;28;19908;-79
2021/12/18 11:41:15;;;;;;;;;;;22.40;39.80;;;;;;5079939;28;19916;-81
2021/12/18 11:43:44;;;;;;;;;;;22.40;39.80;;;;;;5080172;28;19977;-81
2021/12/18 11:46:28;;;;;;;;;;;22.40;39.80;;;;;;5063356;28;19908;-84
2021/12/18 11:48:54;;;;;;;;;;;22.40;39.80;;;;;;5079856;28;20251;-82
2021/12/18 11:51:19;;;;;;;;;;;22.40;39.80;;;;;;5079856;28;20225;-81
2021/12/18 11:53:45;;;;;;;;;;;22.40;39.90;;;;;;5062925;28;19915;-83
2021/12/18 11:56:10;;;;;;;;;;;22.40;39.90;;;;;;5063020;28;19908;-82
2021/12/18 11:58:43;;;;;;;;;;;22.50;39.90;;;;;;5063052;28;19908;-82
2021/12/18 12:01:18;;;;;;;;;;;22.50;39.90;;;;;;5063157;28;19912;-79
2021/12/18 12:03:46;;;;;;;;;;;22.50;40.00;;;;;;5079267;28;20069;-83
2021/12/18 12:06:28;;;;;;;;;;;22.60;40.00;;;;;;5079497;28;20057;-83
2021/12/18 12:09:23;;;;;;;;;;;22.60;40.10;;;;;;5063476;28;20236;-81
2021/12/18 12:11:53;;;;;;;;;;;22.60;40.10;;;;;;5079016;28;19919;-80
2021/12/18 12:14:20;;;;;;;;;;;22.60;40.30;;;;;;5062412;28;19919;-81
2021/12/18 12:16:48;;;;;;;;;;;22.60;40.40;;;;;;5062295;28;19908;-80
2021/12/18 12:19:14;;;;;;;;;;;22.70;40.50;;;;;;5078918;28;19919;-82
2021/12/18 12:21:40;;;;;;;;;;;22.70;40.50;;;;;;5078903;28;20295;-81
2021/12/18 12:24:05;;;;;;;;;;;22.70;40.40;;;;;;5062564;28;20222;-81
2021/12/18 12:26:31;;;;;;;;;;;22.70;40.50;;;;;;5078803;28;19919;-83
2021/12/18 12:28:56;;;;;;;;;;;22.80;40.60;;;;;;5061742;28;19922;-84
2021/12/18 12:31:22;;;;;;;;;;;22.70;40.70;;;;;;5061730;28;19912;-82
2021/12/18 12:33:49;;;;;;;;;;;22.70;40.70;;;;;;5078600;28;19908;-81
2021/12/18 12:36:15;;;;;;;;;;;22.80;40.80;;;;;;5078619;28;20356;-84
2021/12/18 12:38:56;;;;;;;;;;;22.80;40.80;;;;;;5078355;28;19908;-80
2021/12/18 12:41:21;;;;;;;;;;;22.80;40.90;;;;;;5078888;28;19908;-83
2021/12/18 12:43:47;;;;;;;;;;;22.80;40.90;;;;;;5078453;28;20008;-80
2021/12/18 12:46:16;;;;;;;;;;;22.80;41.00;;;;;;5062222;28;19912;-81
2021/12/18 12:49:00;;;;;;;;;;;22.80;41.00;;;;;;5061889;28;19912;-83
2021/12/18 12:51:25;;;;;;;;;;;22.90;41.10;;;;;;5078616;28;19908;-83
2021/12/18 12:53:51;;;;;;;;;;;22.80;41.10;;;;;;5062115;28;19916;-83
2021/12/18 12:56:18;;;;;;;;;;;22.90;41.20;;;;;;5078599;28;19915;-85
2021/12/18 12:58:44;;;;;;;;;;;22.90;41.30;;;;;;5078996;28;20260;-83
2021/12/18 13:01:10;;;;;;;;;;;22.90;41.20;;;;;;5078340;28;19919;-83
2021/12/18 13:03:37;;;;;;;;;;;22.90;41.20;;;;;;5078684;28;19908;-81
2021/12/18 13:06:05;;;;;;;;;;;22.90;41.20;;;;;;5078901;28;19919;-81
2021/12/18 13:08:32;;;;;;;;;;;23.00;41.30;;;;;;5061690;28;19916;-82
2021/12/18 13:11:01;;;;;;;;;;;23.00;41.30;;;;;;5061804;28;19916;-82
2021/12/18 13:13:28;;;;;;;;;;;23.00;41.40;;;;;;5062520;28;19965;-84
2021/12/18 13:15:54;;;;;;;;;;;23.00;41.40;;;;;;5061571;28;19919;-83
2021/12/18 13:18:22;;;;;;;;;;;23.00;41.30;;;;;;5078325;28;19908;-83
2021/12/18 13:20:55;;;;;;;;;;;23.00;41.40;;;;;;5078560;28;20336;-83
2021/12/18 13:23:23;;;;;;;;;;;23.10;41.40;;;;;;5062193;28;19919;-83
2021/12/18 13:25:53;;;;;;;;;;;23.10;41.70;;;;;;5078668;28;19908;-82
2021/12/18 13:28:21;;;;;;;;;;;23.10;41.40;;;;;;5078621;28;20328;-81
2021/12/18 13:30:54;;;;;;;;;;;23.10;41.40;;;;;;5061572;28;19939;-84
2021/12/18 13:33:26;;;;;;;;;;;23.10;41.40;;;;;;5078583;28;19908;-82
2021/12/18 13:35:55;;;;;;;;;;;23.20;41.50;;;;;;5061478;28;19919;-82
2021/12/18 13:38:25;;;;;;;;;;;23.10;41.50;;;;;;5078016;28;19909;-81
2021/12/18 13:40:51;;;;;;;;;;;23.20;41.50;;;;;;5061671;28;19908;-82
2021/12/18 13:43:17;;;;;;;;;;;23.20;41.50;;;;;;5060571;28;19909;-84
2021/12/18 13:45:56;;;;;;;;;;;23.20;41.40;;;;;;5060967;28;19916;-82
2021/12/18 13:48:22;;;;;;;;;;;23.20;41.40;;;;;;5077386;28;19918;-82
2021/12/18 13:50:52;;;;;;;;;;;23.30;42.10;;;;;;5061035;28;20412;-83
2021/12/18 13:53:20;;;;;;;;;;;23.30;41.50;;;;;;5060546;28;19908;-83
2021/12/18 13:55:55;;;;;;;;;;;23.30;41.50;;;;;;5078506;28;20336;-83
2021/12/18 13:58:32;;;;;;;;;;;23.30;41.50;;;;;;5061954;28;19916;-82
2021/12/18 14:01:04;;;;;;;;;;;23.30;41.50;;;;;;5063995;28;20256;-82
2021/12/18 14:03:36;;;;;;;;;;;23.30;41.60;;;;;;5081899;28;19919;-81
2021/12/18 14:06:01;;;;;;;;;;;23.30;41.60;;;;;;5082003;28;19908;-83
2021/12/18 14:08:29;;;;;;;;;;;23.30;41.60;;;;;;5099620;28;19962;-82
2021/12/18 14:10:54;;;;;;;;;;;23.30;41.60;;;;;;5082253;28;19973;-84
2021/12/18 14:13:22;;;;;;;;;;;23.30;41.60;;;;;;5081558;28;19908;-81
2021/12/18 14:15:48;;;;;;;;;;;23.30;41.60;;;;;;5081834;28;20394;-85
2021/12/18 14:18:30;;;;;;;;;;;23.30;41.60;;;;;;5064540;28;19912;-82
2021/12/18 14:20:55;;;;;;;;;;;23.30;41.70;;;;;;5064876;28;19919;-84
2021/12/18 14:23:27;;;;;;;;;;;23.30;41.60;;;;;;5081628;28;19909;-81
2021/12/18 14:26:11;;;;;;;;;;;23.30;41.70;;;;;;5064231;28;19912;-82
2021/12/18 14:28:39;;;;;;;;;;;23.30;41.60;;;;;;5064809;28;19912;-82
2021/12/18 14:31:23;;;;;;;;;;;23.30;41.70;;;;;;5081381;28;19916;-82
2021/12/18 14:33:54;;;;;;;;;;;23.30;41.70;;;;;;5081071;28;19908;-83
2021/12/18 14:36:42;;;;;;;;;;;23.30;41.70;;;;;;5064235;28;19999;-80
2021/12/18 14:39:08;;;;;;;;;;;23.30;41.70;;;;;;5064398;28;19916;-82
2021/12/18 14:41:36;;;;;;;;;;;23.30;41.80;;;;;;5081041;28;19912;-83
2021/12/18 14:44:05;;;;;;;;;;;23.30;41.80;;;;;;5080705;28;19920;-83
2021/12/18 14:46:32;;;;;;;;;;;23.30;41.90;;;;;;5064305;28;19912;-82
2021/12/18 14:49:07;;;;;;;;;;;23.30;42.00;;;;;;5081212;28;20355;-80
2021/12/18 14:51:37;;;;;;;;;;;23.30;42.00;;;;;;5064600;28;19912;-81
2021/12/18 14:54:05;;;;;;;;;;;23.30;41.90;;;;;;5081425;28;19920;-83
2021/12/18 14:56:31;;;;;;;;;;;23.30;42.20;;;;;;5064064;28;19908;-81
2021/12/18 14:58:59;;;;;;;;;;;23.30;42.40;;;;;;5080466;28;19966;-82
2021/12/18 15:01:27;;;;;;;;;;;23.40;42.70;;;;;;5080665;28;20336;-82
2021/12/18 15:03:53;;;;;;;;;;;23.40;46.40;;;;;;5063392;28;19908;-79
2021/12/18 15:06:25;;;;;;;;;;;23.40;50.60;;;;;;5080249;28;19908;-81
2021/12/18 15:09:00;;;;;;;;;;;23.40;51.10;;;;;;5097906;28;19919;-82